sensor_id;sensor_type;location;lat;lon;timestamp;pressure;altitude;pressure_sealevel;temperature;humidity
65157;BME280;52745;49.794;18.258;2023-03-13T00:01:44;-16084.25;;;5.50;74.13
65157;BME280;52745;49.794;18.258;2023-03-13T00:04:11;-16085.06;;;5.53;74.28
65157;BME280;52745;49.794;18.258;2023-03-13T00:06:40;-16083.03;;;5.45;74.52
65157;BME280;52745;49.794;18.258;2023-03-13T00:09:10;-16082.34;;;5.43;75.15
65157;BME280;52745;49.794;18.258;2023-03-13T00:11:36;-16081.38;;;5.39;75.56
65157;BME280;52745;49.794;18.258;2023-03-13T00:14:05;-16081.81;;;5.41;75.56
65157;BME280;52745;49.794;18.258;2023-03-13T00:16:32;-16081.94;;;5.41;75.92
65157;BME280;52745;49.794;18.258;2023-03-13T00:19:03;-16080.03;;;5.34;76.26
65157;BME280;52745;49.794;18.258;2023-03-13T00:21:31;-16080.84;;;5.37;76.62
65157;BME280;52745;49.794;18.258;2023-03-13T00:23:58;-16080.03;;;5.34;76.85
65157;BME280;52745;49.794;18.258;2023-03-13T00:26:26;-16081.13;;;5.38;77.04
65157;BME280;52745;49.794;18.258;2023-03-13T00:28:53;-16080.56;;;5.36;77.37
65157;BME280;52745;49.794;18.258;2023-03-13T00:31:27;-16081.38;;;5.39;77.62
65157;BME280;52745;49.794;18.258;2023-03-13T00:33:58;-16081.13;;;5.38;77.65
65157;BME280;52745;49.794;18.258;2023-03-13T00:36:27;-16080.56;;;5.36;78.23
65157;BME280;52745;49.794;18.258;2023-03-13T00:38:56;-16081.13;;;5.38;78.34
65157;BME280;52745;49.794;18.258;2023-03-13T00:41:26;-16080.03;;;5.34;78.84
65157;BME280;52745;49.794;18.258;2023-03-13T00:43:54;-16081.38;;;5.39;78.89
65157;BME280;52745;49.794;18.258;2023-03-13T00:46:22;-16079.19;;;5.31;79.38
65157;BME280;52745;49.794;18.258;2023-03-13T00:48:50;-16080.69;;;5.36;79.45
65157;BME280;52745;49.794;18.258;2023-03-13T00:51:18;-16080.56;;;5.36;79.48
65157;BME280;52745;49.794;18.258;2023-03-13T00:53:46;-16080.03;;;5.34;79.64
65157;BME280;52745;49.794;18.258;2023-03-13T00:56:14;-16078.94;;;5.30;80.28
65157;BME280;52745;49.794;18.258;2023-03-13T00:58:43;-16077.41;;;5.24;80.60
65157;BME280;52745;49.794;18.258;2023-03-13T01:03:41;-16076.59;;;5.21;81.06
65157;BME280;52745;49.794;18.258;2023-03-13T01:06:10;-16076.88;;;5.22;81.15
65157;BME280;52745;49.794;18.258;2023-03-13T01:08:38;-16076.47;;;5.21;81.30
65157;BME280;52745;49.794;18.258;2023-03-13T01:11:10;-16077.56;;;5.25;81.43
65157;BME280;52745;49.794;18.258;2023-03-13T01:13:39;-16077.16;;;5.23;81.65
65157;BME280;52745;49.794;18.258;2023-03-13T01:16:08;-16075.91;;;5.18;82.12
65157;BME280;52745;49.794;18.258;2023-03-13T01:18:37;-16074.81;;;5.14;82.51
65157;BME280;52745;49.794;18.258;2023-03-13T01:21:04;-16075.91;;;5.18;82.17
65157;BME280;52745;49.794;18.258;2023-03-13T01:23:32;-16076.88;;;5.22;82.01
65157;BME280;52745;49.794;18.258;2023-03-13T01:25:58;-16077.00;;;5.23;81.54
65157;BME280;52745;49.794;18.258;2023-03-13T01:28:26;-16076.75;;;5.22;81.43
65157;BME280;52745;49.794;18.258;2023-03-13T01:30:54;-16075.91;;;5.18;81.27
65157;BME280;52745;49.794;18.258;2023-03-13T01:33:21;-16076.06;;;5.19;80.86
65157;BME280;52745;49.794;18.258;2023-03-13T01:35:47;-16075.91;;;5.18;80.89
65157;BME280;52745;49.794;18.258;2023-03-13T01:38:14;-16075.50;;;5.17;81.05
65157;BME280;52745;49.794;18.258;2023-03-13T01:40:46;-16074.97;;;5.15;80.97
65157;BME280;52745;49.794;18.258;2023-03-13T01:43:21;-16075.25;;;5.16;81.23
65157;BME280;52745;49.794;18.258;2023-03-13T01:46:03;-16074.00;;;5.11;81.42
65157;BME280;52745;49.794;18.258;2023-03-13T01:48:52;-16073.03;;;5.08;82.00
65157;BME280;52745;49.794;18.258;2023-03-13T01:51:37;-16076.06;;;5.19;81.77
65157;BME280;52745;49.794;18.258;2023-03-13T01:54:58;-16077.00;;;5.23;81.48
65157;BME280;52745;49.794;18.258;2023-03-13T01:57:26;-16075.38;;;5.16;82.38
65157;BME280;52745;49.794;18.258;2023-03-13T02:00:02;-16076.31;;;5.20;82.54
65157;BME280;52745;49.794;18.258;2023-03-13T02:02:46;-16075.38;;;5.16;82.82
65157;BME280;52745;49.794;18.258;2023-03-13T02:05:16;-16075.78;;;5.18;83.26
65157;BME280;52745;49.794;18.258;2023-03-13T02:07:50;-16075.09;;;5.15;83.54
65157;BME280;52745;49.794;18.258;2023-03-13T02:10:21;-16076.06;;;5.19;83.54
65157;BME280;52745;49.794;18.258;2023-03-13T02:12:48;-16077.00;;;5.23;83.25
65157;BME280;52745;49.794;18.258;2023-03-13T02:15:17;-16076.75;;;5.22;83.56
65157;BME280;52745;49.794;18.258;2023-03-13T02:17:46;-16076.19;;;5.19;83.63
65157;BME280;52745;49.794;18.258;2023-03-13T02:20:15;-16075.91;;;5.18;83.52
65157;BME280;52745;49.794;18.258;2023-03-13T02:27:54;-16075.66;;;5.17;83.27
65157;BME280;52745;49.794;18.258;2023-03-13T02:30:23;-16073.47;;;5.09;83.50
65157;BME280;52745;49.794;18.258;2023-03-13T02:32:50;-16072.63;;;5.06;83.56
65157;BME280;52745;49.794;18.258;2023-03-13T02:35:19;-16074.28;;;5.12;83.53
65157;BME280;52745;49.794;18.258;2023-03-13T02:38:00;-16074.00;;;5.11;83.69
65157;BME280;52745;49.794;18.258;2023-03-13T02:40:32;-16072.22;;;5.05;83.65
65157;BME280;52745;49.794;18.258;2023-03-13T02:43:05;-16073.88;;;5.11;83.78
65157;BME280;52745;49.794;18.258;2023-03-13T02:45:33;-16076.19;;;5.19;83.49
65157;BME280;52745;49.794;18.258;2023-03-13T02:48:00;-16075.25;;;5.16;83.47
65157;BME280;52745;49.794;18.258;2023-03-13T02:50:27;-16074.28;;;5.12;83.64
65157;BME280;52745;49.794;18.258;2023-03-13T02:52:59;-16074.56;;;5.13;83.71
65157;BME280;52745;49.794;18.258;2023-03-13T02:55:30;-16074.97;;;5.15;83.63
65157;BME280;52745;49.794;18.258;2023-03-13T02:57:58;-16075.66;;;5.17;83.90
65157;BME280;52745;49.794;18.258;2023-03-13T03:00:25;-16074.81;;;5.14;83.90
65157;BME280;52745;49.794;18.258;2023-03-13T03:02:53;-16075.09;;;5.15;84.33
65157;BME280;52745;49.794;18.258;2023-03-13T03:05:21;-16076.75;;;5.22;84.09
65157;BME280;52745;49.794;18.258;2023-03-13T03:07:49;-16077.69;;;5.25;84.02
65157;BME280;52745;49.794;18.258;2023-03-13T03:10:17;-16078.66;;;5.29;83.86
65157;BME280;52745;49.794;18.258;2023-03-13T03:12:43;-16079.88;;;5.33;83.63
65157;BME280;52745;49.794;18.258;2023-03-13T03:15:10;-16078.25;;;5.27;84.21
65157;BME280;52745;49.794;18.258;2023-03-13T03:17:41;-16080.03;;;5.34;83.83
65157;BME280;52745;49.794;18.258;2023-03-13T03:20:09;-16080.84;;;5.37;83.67
65157;BME280;52745;49.794;18.258;2023-03-13T03:22:42;-16081.53;;;5.39;83.73
65157;BME280;52745;49.794;18.258;2023-03-13T03:25:09;-16083.56;;;5.47;83.49
65157;BME280;52745;49.794;18.258;2023-03-13T03:27:36;-16082.34;;;5.43;83.63
65157;BME280;52745;49.794;18.258;2023-03-13T03:30:06;-16083.03;;;5.45;83.67
65157;BME280;52745;49.794;18.258;2023-03-13T03:32:34;-16084.66;;;5.51;83.42
65157;BME280;52745;49.794;18.258;2023-03-13T03:35:01;-16084.41;;;5.50;83.19
65157;BME280;52745;49.794;18.258;2023-03-13T03:37:28;-16083.56;;;5.47;83.45
65157;BME280;52745;49.794;18.258;2023-03-13T03:39:55;-16084.66;;;5.51;83.10
65157;BME280;52745;49.794;18.258;2023-03-13T03:42:21;-16085.50;;;5.54;83.07
65157;BME280;52745;49.794;18.258;2023-03-13T03:44:48;-16084.94;;;5.52;82.85
65157;BME280;52745;49.794;18.258;2023-03-13T03:47:15;-16085.63;;;5.55;82.90
65157;BME280;52745;49.794;18.258;2023-03-13T03:49:45;-16086.44;;;5.58;82.94
65157;BME280;52745;49.794;18.258;2023-03-13T03:52:13;-16086.72;;;5.59;82.96
65157;BME280;52745;49.794;18.258;2023-03-13T03:54:42;-16086.31;;;5.57;82.88
65157;BME280;52745;49.794;18.258;2023-03-13T03:57:08;-16085.34;;;5.54;82.98
65157;BME280;52745;49.794;18.258;2023-03-13T03:59:37;-16084.25;;;5.50;83.08
65157;BME280;52745;49.794;18.258;2023-03-13T04:02:07;-16083.44;;;5.47;83.47
65157;BME280;52745;49.794;18.258;2023-03-13T04:04:34;-16084.66;;;5.51;82.83
65157;BME280;52745;49.794;18.258;2023-03-13T04:07:17;-16084.66;;;5.51;83.11
65157;BME280;52745;49.794;18.258;2023-03-13T04:09:44;-16085.75;;;5.55;82.92
65157;BME280;52745;49.794;18.258;2023-03-13T04:12:19;-16086.44;;;5.58;82.88
65157;BME280;52745;49.794;18.258;2023-03-13T04:14:47;-16088.50;;;5.66;82.30
65157;BME280;52745;49.794;18.258;2023-03-13T04:17:14;-16087.41;;;5.62;82.19
65157;BME280;52745;49.794;18.258;2023-03-13T04:19:43;-16087.25;;;5.61;82.52
65157;BME280;52745;49.794;18.258;2023-03-13T04:22:09;-16086.31;;;5.57;82.59
65157;BME280;52745;49.794;18.258;2023-03-13T04:24:39;-16087.69;;;5.63;82.37
65157;BME280;52745;49.794;18.258;2023-03-13T04:27:05;-16088.22;;;5.65;82.36
65157;BME280;52745;49.794;18.258;2023-03-13T04:29:32;-16087.00;;;5.60;82.61
65157;BME280;52745;49.794;18.258;2023-03-13T04:32:05;-16087.69;;;5.63;82.71
65157;BME280;52745;49.794;18.258;2023-03-13T04:34:50;-16088.75;;;5.67;82.42
65157;BME280;52745;49.794;18.258;2023-03-13T04:37:52;-16088.50;;;5.66;82.38
65157;BME280;52745;49.794;18.258;2023-03-13T04:40:38;-16088.75;;;5.67;82.41
65157;BME280;52745;49.794;18.258;2023-03-13T04:43:22;-16089.59;;;5.70;82.56
65157;BME280;52745;49.794;18.258;2023-03-13T04:46:05;-16089.31;;;5.69;82.41
65157;BME280;52745;49.794;18.258;2023-03-13T04:48:52;-16089.59;;;5.70;82.69
65157;BME280;52745;49.794;18.258;2023-03-13T04:51:25;-16089.88;;;5.71;82.43
65157;BME280;52745;49.794;18.258;2023-03-13T04:54:12;-16090.97;;;5.75;82.31
65157;BME280;52745;49.794;18.258;2023-03-13T04:57:04;-16090.41;;;5.73;82.58
65157;BME280;52745;49.794;18.258;2023-03-13T04:59:42;-16090.97;;;5.75;82.59
65157;BME280;52745;49.794;18.258;2023-03-13T05:02:21;-16091.91;;;5.78;82.62
65157;BME280;52745;49.794;18.258;2023-03-13T05:05:20;-16092.06;;;5.79;82.58
65157;BME280;52745;49.794;18.258;2023-03-13T05:08:06;-16092.31;;;5.80;82.57
65157;BME280;52745;49.794;18.258;2023-03-13T05:10:50;-16091.09;;;5.75;82.86
65157;BME280;52745;49.794;18.258;2023-03-13T05:13:36;-16091.38;;;5.76;83.21
65157;BME280;52745;49.794;18.258;2023-03-13T05:16:28;-16093.97;;;5.86;82.96
65157;BME280;52745;49.794;18.258;2023-03-13T05:19:13;-16095.75;;;5.93;82.51
65157;BME280;52745;49.794;18.258;2023-03-13T05:21:41;-16096.69;;;5.96;82.65
65157;BME280;52745;49.794;18.258;2023-03-13T05:24:43;-16096.56;;;5.96;82.65
65157;BME280;52745;49.794;18.258;2023-03-13T05:27:40;-16096.44;;;5.95;83.01
65157;BME280;52745;49.794;18.258;2023-03-13T05:30:22;-16097.53;;;5.99;82.88
65157;BME280;52745;49.794;18.258;2023-03-13T05:33:09;-16098.63;;;6.04;82.86
65157;BME280;52745;49.794;18.258;2023-03-13T05:35:59;-16099.84;;;6.08;82.58
65157;BME280;52745;49.794;18.258;2023-03-13T05:38:55;-16101.34;;;6.14;82.62
65157;BME280;52745;49.794;18.258;2023-03-13T05:41:41;-16103.41;;;6.21;82.43
65157;BME280;52745;49.794;18.258;2023-03-13T05:44:27;-16105.19;;;6.28;82.27
65157;BME280;52745;49.794;18.258;2023-03-13T05:47:04;-16107.38;;;6.36;81.97
65157;BME280;52745;49.794;18.258;2023-03-13T05:49:42;-16107.91;;;6.38;81.99
65157;BME280;52745;49.794;18.258;2023-03-13T05:52:29;-16109.81;;;6.46;81.60
65157;BME280;52745;49.794;18.258;2023-03-13T05:54:58;-16111.72;;;6.53;81.51
65157;BME280;52745;49.794;18.258;2023-03-13T05:57:51;-16112.69;;;6.56;81.43
65157;BME280;52745;49.794;18.258;2023-03-13T06:00:43;-16116.09;;;6.69;81.01
65157;BME280;52745;49.794;18.258;2023-03-13T06:03:51;-16117.19;;;6.73;80.93
65157;BME280;52745;49.794;18.258;2023-03-13T06:06:19;-16119.66;;;6.82;80.59
65157;BME280;52745;49.794;18.258;2023-03-13T06:08:52;-16121.72;;;6.90;80.32
65157;BME280;52745;49.794;18.258;2023-03-13T06:11:19;-16122.66;;;6.94;80.03
65157;BME280;52745;49.794;18.258;2023-03-13T06:13:46;-16122.81;;;6.94;80.19
65157;BME280;52745;49.794;18.258;2023-03-13T06:16:25;-16124.03;;;6.99;79.83
65157;BME280;52745;49.794;18.258;2023-03-13T06:18:57;-16126.63;;;7.09;79.70
65157;BME280;52745;49.794;18.258;2023-03-13T06:21:23;-16126.50;;;7.08;79.52
65157;BME280;52745;49.794;18.258;2023-03-13T06:23:50;-16128.94;;;7.17;82.35
65157;BME280;52745;49.794;18.258;2023-03-13T06:26:17;-16134.81;;;7.39;86.61
65157;BME280;52745;49.794;18.258;2023-03-13T06:28:43;-16135.63;;;7.42;80.27
65157;BME280;52745;49.794;18.258;2023-03-13T06:31:10;-16135.22;;;7.41;78.10
65157;BME280;52745;49.794;18.258;2023-03-13T06:33:37;-16132.91;;;7.32;78.88
65157;BME280;52745;49.794;18.258;2023-03-13T06:36:04;-16133.72;;;7.35;78.52
65157;BME280;52745;49.794;18.258;2023-03-13T06:38:31;-16135.38;;;7.41;78.33
65157;BME280;52745;49.794;18.258;2023-03-13T06:40:57;-16134.53;;;7.38;78.17
65157;BME280;52745;49.794;18.258;2023-03-13T06:43:24;-16131.81;;;7.28;78.45
65157;BME280;52745;49.794;18.258;2023-03-13T06:45:51;-16133.31;;;7.34;78.60
65157;BME280;52745;49.794;18.258;2023-03-13T06:48:18;-16135.78;;;7.43;78.16
65157;BME280;52745;49.794;18.258;2023-03-13T06:50:46;-16137.28;;;7.49;77.96
65157;BME280;52745;49.794;18.258;2023-03-13T06:53:19;-16139.06;;;7.55;77.79
65157;BME280;52745;49.794;18.258;2023-03-13T06:55:46;-16141.94;;;7.66;77.10
65157;BME280;52745;49.794;18.258;2023-03-13T06:58:15;-16145.34;;;7.79;76.80
65157;BME280;52745;49.794;18.258;2023-03-13T07:00:42;-16146.97;;;7.85;76.55
65157;BME280;52745;49.794;18.258;2023-03-13T07:03:10;-16147.66;;;7.87;76.18
65157;BME280;52745;49.794;18.258;2023-03-13T07:05:36;-16151.06;;;8.00;75.92
65157;BME280;52745;49.794;18.258;2023-03-13T07:08:03;-16151.34;;;8.01;75.68
65157;BME280;52745;49.794;18.258;2023-03-13T07:10:30;-16152.44;;;8.05;75.37
65157;BME280;52745;49.794;18.258;2023-03-13T07:12:57;-16151.34;;;8.01;75.07
65157;BME280;52745;49.794;18.258;2023-03-13T07:15:24;-16153.25;;;8.08;75.03
65157;BME280;52745;49.794;18.258;2023-03-13T07:17:51;-16155.56;;;8.17;74.52
65157;BME280;52745;49.794;18.258;2023-03-13T07:20:17;-16160.50;;;8.36;73.79
65157;BME280;52745;49.794;18.258;2023-03-13T07:22:50;-16167.88;;;8.63;72.61
65157;BME280;52745;49.794;18.258;2023-03-13T07:25:16;-16172.78;;;8.82;71.90
65157;BME280;52745;49.794;18.258;2023-03-13T07:27:43;-16174.28;;;8.87;71.30
65157;BME280;52745;49.794;18.258;2023-03-13T07:30:10;-16176.31;;;8.95;70.58
65157;BME280;52745;49.794;18.258;2023-03-13T07:32:37;-16177.28;;;8.99;70.78
65157;BME280;52745;49.794;18.258;2023-03-13T07:35:04;-16179.47;;;9.07;70.19
65157;BME280;52745;49.794;18.258;2023-03-13T07:37:31;-16180.28;;;9.10;70.01
65157;BME280;52745;49.794;18.258;2023-03-13T07:39:58;-16182.75;;;9.19;69.61
65157;BME280;52745;49.794;18.258;2023-03-13T07:42:24;-16180.97;;;9.13;69.19
65157;BME280;52745;49.794;18.258;2023-03-13T07:44:52;-16183.97;;;9.24;69.75
65157;BME280;52745;49.794;18.258;2023-03-13T07:47:19;-16183.00;;;9.20;69.11
65157;BME280;52745;49.794;18.258;2023-03-13T07:49:45;-16183.56;;;9.22;69.03
65157;BME280;52745;49.794;18.258;2023-03-13T07:52:12;-16185.75;;;9.30;69.02
65157;BME280;52745;49.794;18.258;2023-03-13T07:54:38;-16192.16;;;9.55;68.29
65157;BME280;52745;49.794;18.258;2023-03-13T07:57:05;-16195.03;;;9.65;67.59
65157;BME280;52745;49.794;18.258;2023-03-13T07:59:32;-16194.59;;;9.64;67.44
65157;BME280;52745;49.794;18.258;2023-03-13T08:01:59;-16202.38;;;9.93;67.14
65157;BME280;52745;49.794;18.258;2023-03-13T08:04:25;-16201.84;;;9.91;66.18
65157;BME280;52745;49.794;18.258;2023-03-13T08:06:52;-16207.69;;;10.13;65.59
65157;BME280;52745;49.794;18.258;2023-03-13T08:09:20;-16210.16;;;10.22;65.39
65157;BME280;52745;49.794;18.258;2023-03-13T08:11:47;-16208.78;;;10.17;65.63
65157;BME280;52745;49.794;18.258;2023-03-13T08:14:14;-16212.06;;;10.29;65.24
65157;BME280;52745;49.794;18.258;2023-03-13T08:16:41;-16213.84;;;10.36;64.97
65157;BME280;52745;49.794;18.258;2023-03-13T08:19:09;-16214.38;;;10.38;64.65
65157;BME280;52745;49.794;18.258;2023-03-13T08:21:36;-16216.72;;;10.47;64.40
65157;BME280;52745;49.794;18.258;2023-03-13T08:24:05;-16221.47;;;10.65;64.33
65157;BME280;52745;49.794;18.258;2023-03-13T08:26:34;-16229.66;;;10.95;67.08
65157;BME280;52745;49.794;18.258;2023-03-13T08:29:05;-16235.25;;;11.16;63.75
65157;BME280;52745;49.794;18.258;2023-03-13T08:31:35;-16243.81;;;11.49;63.61
65157;BME280;52745;49.794;18.258;2023-03-13T08:34:02;-16262.63;;;12.19;63.16
65157;BME280;52745;49.794;18.258;2023-03-13T08:36:34;-16263.19;;;12.21;61.47
65157;BME280;52745;49.794;18.258;2023-03-13T08:39:08;-16268.75;;;12.42;59.21
65157;BME280;52745;49.794;18.258;2023-03-13T08:41:35;-16279.78;;;12.84;59.77
65157;BME280;52745;49.794;18.258;2023-03-13T08:44:05;-16275.44;;;12.68;57.18
65157;BME280;52745;49.794;18.258;2023-03-13T08:46:35;-16260.31;;;12.11;58.88
65157;BME280;52745;49.794;18.258;2023-03-13T08:49:03;-16248.19;;;11.65;60.58
65157;BME280;52745;49.794;18.258;2023-03-13T08:51:31;-16243.69;;;11.48;60.20
65157;BME280;52745;49.794;18.258;2023-03-13T08:53:57;-16243.56;;;11.48;60.55
65157;BME280;52745;49.794;18.258;2023-03-13T08:56:26;-16242.47;;;11.44;60.13
65157;BME280;52745;49.794;18.258;2023-03-13T08:58:58;-16237.84;;;11.26;60.55
65157;BME280;52745;49.794;18.258;2023-03-13T09:01:28;-16246.81;;;11.60;59.84
65157;BME280;52745;49.794;18.258;2023-03-13T09:03:55;-16244.38;;;11.51;58.86
65157;BME280;52745;49.794;18.258;2023-03-13T09:06:22;-16241.91;;;11.42;59.23
65157;BME280;52745;49.794;18.258;2023-03-13T09:08:49;-16245.88;;;11.56;58.68
65157;BME280;52745;49.794;18.258;2023-03-13T09:11:18;-16242.06;;;11.42;58.33
65157;BME280;52745;49.794;18.258;2023-03-13T09:13:47;-16256.09;;;11.95;57.14
65157;BME280;52745;49.794;18.258;2023-03-13T09:16:19;-16264.00;;;12.25;55.68
65157;BME280;52745;49.794;18.258;2023-03-13T09:18:46;-16270.66;;;12.50;54.45
65157;BME280;52745;49.794;18.258;2023-03-13T09:21:17;-16281.97;;;12.92;54.18
65157;BME280;52745;49.794;18.258;2023-03-13T09:23:44;-16285.38;;;13.05;53.46
65157;BME280;52745;49.794;18.258;2023-03-13T09:26:11;-16275.97;;;12.70;54.33
65157;BME280;52745;49.794;18.258;2023-03-13T09:28:39;-16270.13;;;12.48;54.81
65157;BME280;52745;49.794;18.258;2023-03-13T09:33:34;-16259.78;;;12.09;55.63
65157;BME280;52745;49.794;18.258;2023-03-13T09:36:01;-16257.06;;;11.98;55.87
65157;BME280;52745;49.794;18.258;2023-03-13T09:38:28;-16261.81;;;12.16;55.41
65157;BME280;52745;49.794;18.258;2023-03-13T09:40:55;-16259.50;;;12.08;55.44
65157;BME280;52745;49.794;18.258;2023-03-13T09:43:38;-16273.25;;;12.59;54.10
65157;BME280;52745;49.794;18.258;2023-03-13T09:46:12;-16282.25;;;12.93;52.95
65157;BME280;52745;49.794;18.258;2023-03-13T09:48:45;-16294.91;;;13.41;51.55
65157;BME280;52745;49.794;18.258;2023-03-13T09:51:37;-16293.28;;;13.35;51.59
65157;BME280;52745;49.794;18.258;2023-03-13T09:54:30;-16285.38;;;13.05;52.07
65157;BME280;52745;49.794;18.258;2023-03-13T09:57:24;-16274.22;;;12.63;53.42
65157;BME280;52745;49.794;18.258;2023-03-13T10:00:15;-16274.88;;;12.66;52.91
65157;BME280;52745;49.794;18.258;2023-03-13T10:02:52;-16265.22;;;12.29;54.36
65157;BME280;52745;49.794;18.258;2023-03-13T10:05:27;-16266.84;;;12.35;54.16
65157;BME280;52745;49.794;18.258;2023-03-13T10:10:48;-16263.19;;;12.21;54.64
65157;BME280;52745;49.794;18.258;2023-03-13T10:13:35;-16264.53;;;12.27;54.52
65157;BME280;52745;49.794;18.258;2023-03-13T10:16:24;-16256.63;;;11.97;54.72
65157;BME280;52745;49.794;18.258;2023-03-13T10:18:56;-16247.09;;;11.61;54.67
65157;BME280;52745;49.794;18.258;2023-03-13T10:21:32;-16240.28;;;11.35;55.76
65157;BME280;52745;49.794;18.258;2023-03-13T10:24:04;-16241.09;;;11.38;56.11
65157;BME280;52745;49.794;18.258;2023-03-13T10:26:36;-16239.34;;;11.32;55.82
65157;BME280;52745;49.794;18.258;2023-03-13T10:32:06;-16235.38;;;11.17;55.82
65157;BME280;52745;49.794;18.258;2023-03-13T10:34:57;-16234.84;;;11.15;56.27
65157;BME280;52745;49.794;18.258;2023-03-13T10:37:30;-16238.94;;;11.30;56.03
65157;BME280;52745;49.794;18.258;2023-03-13T10:40:21;-16237.16;;;11.24;56.05
65157;BME280;52745;49.794;18.258;2023-03-13T10:42:50;-16242.75;;;11.45;55.73
65157;BME280;52745;49.794;18.258;2023-03-13T10:45:19;-16239.06;;;11.31;55.47
65157;BME280;52745;49.794;18.258;2023-03-13T10:47:55;-16240.56;;;11.36;55.25
65157;BME280;52745;49.794;18.258;2023-03-13T10:50:24;-16242.75;;;11.45;55.19
65157;BME280;52745;49.794;18.258;2023-03-13T10:52:52;-16245.59;;;11.55;55.52
65157;BME280;52745;49.794;18.258;2023-03-13T10:55:22;-16249.28;;;11.69;55.60
65157;BME280;52745;49.794;18.258;2023-03-13T10:57:58;-16252.00;;;11.79;54.77
65157;BME280;52745;49.794;18.258;2023-03-13T11:02:59;-16249.28;;;11.69;55.06
65157;BME280;52745;49.794;18.258;2023-03-13T11:05:36;-16247.91;;;11.64;54.32
65157;BME280;52745;49.794;18.258;2023-03-13T11:08:24;-16248.75;;;11.67;54.96
65157;BME280;52745;49.794;18.258;2023-03-13T11:11:01;-16251.59;;;11.78;54.29
65157;BME280;52745;49.794;18.258;2023-03-13T11:13:36;-16250.91;;;11.75;53.81
65157;BME280;52745;49.794;18.258;2023-03-13T11:16:23;-16252.16;;;11.80;53.81
65157;BME280;52745;49.794;18.258;2023-03-13T11:27:29;-16251.19;;;11.76;49.87
65157;BME280;52745;49.794;18.258;2023-03-13T11:32:40;-16248.88;;;11.68;49.06
65157;BME280;52745;49.794;18.258;2023-03-13T11:35:26;-16248.31;;;11.66;48.88
65157;BME280;52745;49.794;18.258;2023-03-13T11:38:01;-16246.97;;;11.60;48.59
65157;BME280;52745;49.794;18.258;2023-03-13T11:40:57;-16245.47;;;11.55;47.64
65157;BME280;52745;49.794;18.258;2023-03-13T11:49:20;-16245.19;;;11.54;47.55
65157;BME280;52745;49.794;18.258;2023-03-13T12:01:07;-16241.50;;;11.40;48.64
65157;BME280;52745;49.794;18.258;2023-03-13T12:08:55;-16238.25;;;11.28;49.36
65157;BME280;52745;49.794;18.258;2023-03-13T12:14:08;-16233.59;;;11.10;51.91
65157;BME280;52745;49.794;18.258;2023-03-13T12:16:41;-16232.53;;;11.06;52.77
65157;BME280;52745;49.794;18.258;2023-03-13T12:19:12;-16226.78;;;10.85;55.51
65157;BME280;52745;49.794;18.258;2023-03-13T12:21:46;-16222.97;;;10.70;55.53
65157;BME280;52745;49.794;18.258;2023-03-13T12:24:35;-16217.78;;;10.51;58.04
65157;BME280;52745;49.794;18.258;2023-03-13T12:27:32;-16209.88;;;10.21;59.63
65157;BME280;52745;49.794;18.258;2023-03-13T12:32:41;-16209.88;;;10.21;59.49
65157;BME280;52745;49.794;18.258;2023-03-13T12:35:25;-16210.16;;;10.22;57.95
65157;BME280;52745;49.794;18.258;2023-03-13T12:40:36;-16209.75;;;10.21;57.50
65157;BME280;52745;49.794;18.258;2023-03-13T12:43:18;-16212.75;;;10.32;57.65
65157;BME280;52745;49.794;18.258;2023-03-13T13:01:46;-16211.66;;;10.28;59.42
65157;BME280;52745;49.794;18.258;2023-03-13T13:04:26;-16214.13;;;10.37;58.27
65157;BME280;52745;49.794;18.258;2023-03-13T13:07:20;-16218.22;;;10.52;57.59
65157;BME280;52745;49.794;18.258;2023-03-13T13:10:21;-16225.56;;;10.80;57.34
65157;BME280;52745;49.794;18.258;2023-03-13T13:13:16;-16231.56;;;11.03;55.84
65157;BME280;52745;49.794;18.258;2023-03-13T13:15:48;-16238.09;;;11.27;56.00
65157;BME280;52745;49.794;18.258;2023-03-13T13:18:31;-16241.09;;;11.38;54.82
65157;BME280;52745;49.794;18.258;2023-03-13T13:23:36;-16242.19;;;11.43;54.83
65157;BME280;52745;49.794;18.258;2023-03-13T13:28:50;-16238.78;;;11.30;54.51
65157;BME280;52745;49.794;18.258;2023-03-13T13:36:58;-16236.19;;;11.20;54.95
65157;BME280;52745;49.794;18.258;2023-03-13T13:39:36;-16236.59;;;11.22;55.71
65157;BME280;52745;49.794;18.258;2023-03-13T13:44:57;-16233.06;;;11.08;55.83
65157;BME280;52745;49.794;18.258;2023-03-13T13:47:25;-16232.66;;;11.07;55.88
65157;BME280;52745;49.794;18.258;2023-03-13T13:49:55;-16229.53;;;10.95;56.53
65157;BME280;52745;49.794;18.258;2023-03-13T13:52:39;-16227.47;;;10.87;57.21
65157;BME280;52745;49.794;18.258;2023-03-13T13:58:19;-16227.47;;;10.87;57.71
65157;BME280;52745;49.794;18.258;2023-03-13T14:01:05;-16227.75;;;10.88;57.90
65157;BME280;52745;49.794;18.258;2023-03-13T14:03:38;-16227.19;;;10.86;58.04
65157;BME280;52745;49.794;18.258;2023-03-13T14:06:17;-16226.66;;;10.84;58.69
65157;BME280;52745;49.794;18.258;2023-03-13T14:08:47;-16226.94;;;10.85;59.35
65157;BME280;52745;49.794;18.258;2023-03-13T14:13:44;-16228.28;;;10.90;60.07
65157;BME280;52745;49.794;18.258;2023-03-13T14:16:20;-16226.94;;;10.85;60.94
65157;BME280;52745;49.794;18.258;2023-03-13T14:18:48;-16227.06;;;10.86;60.57
65157;BME280;52745;49.794;18.258;2023-03-13T14:21:20;-16226.94;;;10.85;61.40
65157;BME280;52745;49.794;18.258;2023-03-13T14:23:47;-16227.19;;;10.86;61.37
65157;BME280;52745;49.794;18.258;2023-03-13T14:28:52;-16226.66;;;10.84;61.03
65157;BME280;52745;49.794;18.258;2023-03-13T14:31:29;-16226.13;;;10.82;61.08
65157;BME280;52745;49.794;18.258;2023-03-13T14:33:59;-16227.19;;;10.86;60.81
65157;BME280;52745;49.794;18.258;2023-03-13T14:36:27;-16227.34;;;10.87;60.80
65157;BME280;52745;49.794;18.258;2023-03-13T14:38:58;-16227.47;;;10.87;61.21
65157;BME280;52745;49.794;18.258;2023-03-13T14:41:36;-16228.28;;;10.90;60.77
65157;BME280;52745;49.794;18.258;2023-03-13T14:44:22;-16228.84;;;10.92;61.21
65157;BME280;52745;49.794;18.258;2023-03-13T14:47:04;-16229.25;;;10.94;60.96
65157;BME280;52745;49.794;18.258;2023-03-13T14:49:31;-16229.25;;;10.94;60.71
65157;BME280;52745;49.794;18.258;2023-03-13T14:54:53;-16229.38;;;10.94;60.98